createdAt,value
2023-02-28T00:01:13.356Z,1
2023-02-28T00:05:08.551Z,1
2023-02-28T00:10:08.479Z,1
2023-02-28T00:15:08.575Z,1
2023-02-28T00:20:08.642Z,1
2023-02-28T00:25:08.715Z,1
2023-02-28T00:30:08.921Z,1
2023-02-28T00:35:08.972Z,1
2023-02-28T00:40:08.322Z,1
2023-02-28T00:45:08.380Z,1
2023-02-28T00:50:08.529Z,1
2023-02-28T00:55:08.590Z,1
2023-02-28T01:00:08.630Z,1
2023-02-28T01:05:08.701Z,1
2023-02-28T01:10:08.748Z,1
2023-02-28T01:15:08.763Z,1
2023-02-28T01:20:08.806Z,1
2023-02-28T01:25:08.972Z,1
2023-02-28T01:30:08.047Z,1
2023-02-28T01:35:08.159Z,1
2023-02-28T01:40:08.279Z,1
2023-02-28T01:45:08.326Z,1
2023-02-28T01:50:08.385Z,1
2023-02-28T01:55:08.453Z,1
2023-02-28T02:00:08.694Z,1
2023-02-28T02:05:08.781Z,1
2023-02-28T02:10:08.864Z,1
2023-02-28T02:15:08.956Z,1
2023-02-28T02:20:08.068Z,1
2023-02-28T02:25:08.189Z,1
2023-02-28T02:30:08.249Z,1
2023-02-28T02:35:18.275Z,1
2023-02-28T02:40:08.340Z,1
2023-02-28T02:45:08.366Z,1
2023-02-28T02:50:08.402Z,1
2023-02-28T02:55:08.461Z,1
2023-02-28T03:00:08.543Z,1
2023-02-28T03:05:08.639Z,1
2023-02-28T03:10:08.716Z,1
2023-02-28T03:15:08.794Z,1
2023-02-28T03:20:08.886Z,1
2023-02-28T03:25:08.957Z,1
2023-02-28T03:30:07.991Z,1
2023-02-28T03:35:08.080Z,1
2023-02-28T03:40:08.187Z,1
2023-02-28T03:45:08.238Z,1
2023-02-28T03:50:08.502Z,1
2023-02-28T03:55:08.590Z,1
2023-02-28T04:00:08.663Z,1
2023-02-28T04:05:08.703Z,1
2023-02-28T04:10:08.801Z,1
2023-02-28T04:15:08.868Z,1
2023-02-28T04:20:08.985Z,1
2023-02-28T04:25:08.084Z,1
2023-02-28T04:30:08.157Z,1
2023-02-28T04:35:08.266Z,1
2023-02-28T04:40:08.376Z,1
2023-02-28T04:45:08.461Z,1
2023-02-28T04:50:08.585Z,1
2023-02-28T04:55:08.678Z,1
2023-02-28T05:00:08.836Z,1
2023-02-28T05:05:03.018Z,1
2023-02-28T05:10:02.243Z,1
2023-02-28T05:15:03.482Z,1
2023-02-28T05:20:14.670Z,1
2023-02-28T05:25:02.400Z,1
2023-02-28T05:30:02.612Z,1
2023-02-28T05:35:02.720Z,1
2023-02-28T05:40:03.090Z,2
2023-02-28T05:45:02.381Z,2
2023-02-28T05:50:02.573Z,4
2023-02-28T05:55:12.853Z,4
2023-02-28T06:00:03.075Z,23
2023-02-28T06:05:02.196Z,39
2023-02-28T06:10:02.610Z,39
2023-02-28T06:15:02.793Z,68
2023-02-28T06:20:03.110Z,68
2023-02-28T06:25:02.335Z,278
2023-02-28T06:30:02.497Z,278
2023-02-28T06:35:02.763Z,550
2023-02-28T06:40:03.062Z,550
2023-02-28T06:45:02.269Z,814
2023-02-28T06:50:02.546Z,814
2023-02-28T06:55:02.799Z,1000
2023-02-28T07:00:03.083Z,1000
2023-02-28T19:20:09.598Z,1
2023-02-28T19:25:03.824Z,1
2023-02-28T19:30:11.889Z,1
2023-02-28T19:35:09.804Z,1
2023-02-28T19:40:07.406Z,1
2023-02-28T19:45:02.698Z,1
2023-02-28T19:50:10.480Z,1
2023-02-28T20:10:03.280Z,1
2023-02-28T23:30:04.048Z,1
2023-02-28T23:40:08.042Z,1
2023-02-28T23:45:08.114Z,1
2023-02-28T23:50:08.185Z,1
2023-02-28T23:55:08.285Z,1
